Time;durP1;ratioP1;P1;durP2;ratioP2;P2;SDS_P1;SDS_P2;PMS_P1;PMS_P2;Temp;Humidity;BMP_temperature;BMP_pressure;BME280_temperature;BME280_humidity;BME280_pressure;Samples;Min_cycle;Max_cycle;Signal;HPM_P1;HPM_P2
2023/01/17 00:00:17;;;;;;;1.77;1.23;;;4.00;99.90;;;;;;5038460;28;20170;-37
2023/01/17 00:02:42;;;;;;;1.13;0.77;;;3.90;99.90;;;;;;5038363;28;20185;-37
2023/01/17 00:10:39;;;;;;;1.20;0.80;;;3.70;1.00;;;;;;5040208;28;20451;-37
2023/01/17 00:13:05;;;;;;;1.20;1.00;;;3.60;1.00;;;;;;5039720;28;20479;-38
2023/01/17 00:15:31;;;;;;;2.00;1.20;;;3.50;1.00;;;;;;5040171;28;20820;-38
2023/01/17 00:17:57;;;;;;;3.17;1.30;;;3.50;1.00;;;;;;5038281;28;20222;-39
2023/01/17 00:26:13;;;;;;;2.10;1.00;;;3.30;50.20;;;;;;5039104;28;20524;-36
2023/01/17 01:35:28;;;;;;;1.47;1.07;;;3.10;17.80;;;;;;5037410;28;20416;-35
2023/01/17 01:37:53;;;;;;;1.67;1.30;;;3.10;1.00;;;;;;5037821;28;20461;-36
2023/01/17 01:40:20;;;;;;;2.27;1.03;;;3.10;1.00;;;;;;5038100;28;20174;-35
2023/01/17 01:42:53;;;;;;;1.63;0.90;;;3.10;1.00;;;;;;5038079;28;20272;-37
2023/01/17 01:45:30;;;;;;;1.30;1.00;;;3.10;1.00;;;;;;5037461;28;20844;-36
2023/01/17 01:48:01;;;;;;;1.97;1.03;;;3.10;1.00;;;;;;5037353;28;20436;-36
2023/01/17 01:50:29;;;;;;;1.27;0.93;;;3.10;1.00;;;;;;5036557;28;20421;-36
2023/01/17 01:52:57;;;;;;;1.17;0.93;;;3.10;1.00;;;;;;5038362;28;20441;-36
2023/01/17 01:55:27;;;;;;;1.90;0.80;;;3.10;1.00;;;;;;5019813;28;20429;-36
2023/01/17 01:57:57;;;;;;;1.10;1.00;;;3.10;1.00;;;;;;5037091;28;20480;-36
2023/01/17 02:00:33;;;;;;;1.40;0.90;;;3.10;1.00;;;;;;5038338;28;20757;-36
2023/01/17 02:03:01;;;;;;;1.57;1.47;;;3.10;1.00;;;;;;5037240;28;20531;-35
2023/01/17 02:05:27;;;;;;;1.80;0.87;;;3.20;1.00;;;;;;5035715;28;20777;-35
2023/01/17 02:08:08;;;;;;;1.70;1.33;;;3.20;1.00;;;;;;5035952;28;20420;-37
2023/01/17 02:10:38;;;;;;;1.80;1.17;;;3.20;1.00;;;;;;5035918;28;20216;-37
2023/01/17 02:13:05;;;;;;;2.70;1.10;;;3.20;1.00;;;;;;5037113;28;20801;-36
2023/01/17 02:15:44;;;;;;;2.27;1.10;;;3.20;1.00;;;;;;5035787;28;20516;-36
2023/01/17 02:18:29;;;;;;;1.60;1.23;;;3.20;1.00;;;;;;5036052;28;20484;-36
2023/01/17 02:20:56;;;;;;;1.50;1.00;;;3.20;1.00;;;;;;5036139;28;20436;-36
2023/01/17 02:23:44;;;;;;;1.73;0.80;;;3.20;1.00;;;;;;5036631;28;20405;-36
2023/01/17 02:26:22;;;;;;;1.80;0.97;;;3.20;1.00;;;;;;5036055;28;20452;-36
2023/01/17 02:29:20;;;;;;;1.60;1.00;;;3.20;1.00;;;;;;5035755;28;20451;-37
2023/01/17 02:31:51;;;;;;;1.87;1.10;;;3.30;1.00;;;;;;4981636;28;20435;-37
2023/01/17 02:34:27;;;;;;;2.10;0.87;;;3.30;1.00;;;;;;5033489;28;20417;-37
2023/01/17 02:37:22;;;;;;;1.60;0.80;;;3.30;1.00;;;;;;5033936;28;20793;-36
2023/01/17 02:40:13;;;;;;;1.93;1.03;;;3.30;1.00;;;;;;5033683;28;20479;-36
2023/01/17 02:42:51;;;;;;;1.73;1.13;;;3.30;1.00;;;;;;5035101;28;20540;-36
2023/01/17 02:45:18;;;;;;;1.20;0.90;;;3.30;1.00;;;;;;5036553;28;20655;-36
2023/01/17 02:47:44;;;;;;;2.00;0.97;;;3.30;1.00;;;;;;5037526;28;20572;-35
2023/01/17 02:50:13;;;;;;;1.77;1.00;;;3.30;1.00;;;;;;5037704;28;20413;-37
2023/01/17 02:52:47;;;;;;;1.70;1.13;;;3.30;1.00;;;;;;5037033;28;20439;-36
2023/01/17 02:55:35;;;;;;;1.33;0.90;;;3.30;1.00;;;;;;5037341;28;20408;-35
2023/01/17 02:58:23;;;;;;;1.80;1.20;;;3.30;1.00;;;;;;5037422;28;20468;-37
2023/01/17 03:01:19;;;;;;;1.30;0.87;;;3.30;1.00;;;;;;5036752;28;20425;-36
2023/01/17 03:03:50;;;;;;;1.83;1.10;;;3.30;8.70;;;;;;5036173;28;20735;-39
2023/01/17 03:06:36;;;;;;;1.40;1.20;;;3.30;35.40;;;;;;5036382;28;20425;-36
2023/01/17 03:09:03;;;;;;;1.40;1.10;;;3.30;99.90;;;;;;5036742;28;20425;-39
2023/01/17 03:11:28;;;;;;;1.77;0.80;;;3.30;99.90;;;;;;5036343;28;20453;-36
2023/01/17 03:13:57;;;;;;;1.53;1.07;;;3.30;99.90;;;;;;5035419;28;20488;-36
2023/01/17 03:16:27;;;;;;;2.23;1.43;;;3.30;99.90;;;;;;5035346;28;20202;-36
2023/01/17 03:18:52;;;;;;;3.80;1.60;;;3.30;99.90;;;;;;5017388;28;20473;-35
2023/01/17 03:21:19;;;;;;;1.77;1.30;;;3.20;99.90;;;;;;5038880;28;20444;-36
2023/01/17 03:23:45;;;;;;;1.90;1.23;;;3.20;99.90;;;;;;5038185;28;20558;-36
2023/01/17 03:26:10;;;;;;;2.37;1.50;;;3.20;99.90;;;;;;5038027;28;20445;-37
2023/01/17 03:28:36;;;;;;;1.70;1.10;;;3.20;99.90;;;;;;5038461;28;20282;-36
2023/01/17 03:31:02;;;;;;;2.07;1.53;;;3.20;99.90;;;;;;5037579;28;20228;-35
2023/01/17 03:33:27;;;;;;;3.30;1.67;;;3.20;99.90;;;;;;5039071;28;20186;-36
2023/01/17 03:35:56;;;;;;;2.67;1.50;;;3.20;99.90;;;;;;5038429;28;20186;-36
2023/01/17 03:38:23;;;;;;;2.40;1.10;;;3.20;1.00;;;;;;5038709;28;20225;-35
2023/01/17 03:40:49;;;;;;;1.30;1.03;;;3.20;99.90;;;;;;5040668;28;20436;-35
2023/01/17 03:43:15;;;;;;;1.30;1.10;;;3.20;1.00;;;;;;5038765;28;20417;-36
2023/01/17 03:45:40;;;;;;;1.40;1.30;;;3.20;1.00;;;;;;5038665;28;20261;-37
2023/01/17 03:48:06;;;;;;;1.73;1.30;;;3.20;1.00;;;;;;5039312;28;20182;-36
2023/01/17 03:50:31;;;;;;;1.83;1.20;;;3.10;1.00;;;;;;5039229;28;20179;-35
2023/01/17 03:52:57;;;;;;;1.87;1.17;;;3.10;99.90;;;;;;5038769;28;20178;-36
2023/01/17 03:55:23;;;;;;;1.77;1.23;;;3.10;1.00;;;;;;5039086;28;20178;-36
2023/01/17 03:57:49;;;;;;;2.33;1.30;;;3.10;1.00;;;;;;5039190;28;20222;-36
2023/01/17 04:00:14;;;;;;;1.40;1.27;;;3.10;1.00;;;;;;5040782;28;20197;-36
2023/01/17 04:02:40;;;;;;;1.87;1.20;;;3.00;1.00;;;;;;5040285;28;20200;-35
2023/01/17 04:05:06;;;;;;;2.47;1.33;;;3.00;1.00;;;;;;5040553;28;20488;-36
2023/01/17 04:07:31;;;;;;;3.93;1.50;;;3.00;1.00;;;;;;5040173;28;20470;-36
2023/01/17 04:09:57;;;;;;;1.40;1.07;;;3.00;1.00;;;;;;5040816;28;20405;-40
2023/01/17 04:12:23;;;;;;;2.80;1.60;;;3.00;1.00;;;;;;5039933;28;20209;-37
2023/01/17 04:14:48;;;;;;;2.80;1.20;;;3.00;99.90;;;;;;5039099;28;20182;-37
2023/01/17 04:17:16;;;;;;;2.20;1.30;;;3.00;99.90;;;;;;5038994;28;20602;-36
2023/01/17 04:19:42;;;;;;;1.70;1.17;;;3.00;99.90;;;;;;5038574;28;20210;-36
2023/01/17 04:22:08;;;;;;;1.83;1.27;;;2.90;99.90;;;;;;5038603;28;20445;-35
2023/01/17 04:24:33;;;;;;;2.10;1.13;;;2.90;99.90;;;;;;5038494;28;20181;-36
2023/01/17 04:26:59;;;;;;;1.40;1.07;;;2.90;99.90;;;;;;5039183;28;20194;-36
2023/01/17 04:29:25;;;;;;;4.23;1.10;;;2.90;99.90;;;;;;5038845;28;20170;-36
2023/01/17 04:31:50;;;;;;;1.73;1.27;;;2.90;99.90;;;;;;5039211;28;20562;-35
2023/01/17 04:34:16;;;;;;;2.20;1.27;;;2.90;99.90;;;;;;5039087;28;20181;-37
2023/01/17 04:36:41;;;;;;;3.37;1.43;;;2.80;99.90;;;;;;5039856;28;20182;-37
2023/01/17 04:39:07;;;;;;;2.13;1.43;;;2.80;99.90;;;;;;5039491;28;20455;-37
2023/01/17 04:41:33;;;;;;;2.20;1.20;;;2.80;99.90;;;;;;5037978;28;20503;-37
2023/01/17 04:43:58;;;;;;;2.67;1.30;;;2.80;99.90;;;;;;5036918;28;20206;-37
2023/01/17 04:46:24;;;;;;;3.43;1.73;;;2.80;99.90;;;;;;5036998;28;20170;-37
2023/01/17 04:48:50;;;;;;;4.47;2.97;;;2.70;76.10;;;;;;5038721;28;20182;-36
2023/01/17 04:51:15;;;;;;;15.70;9.50;;;2.80;35.80;;;;;;5035947;28;20585;-37
2023/01/17 04:53:41;;;;;;;25.47;16.50;;;2.80;1.00;;;;;;5035865;28;20209;-37
2023/01/17 04:56:07;;;;;;;24.00;15.70;;;2.70;30.10;;;;;;5036825;28;20278;-37
2023/01/17 04:58:32;;;;;;;18.27;10.93;;;2.70;78.70;;;;;;5037887;28;20233;-36
2023/01/17 05:01:02;;;;;;;15.23;8.73;;;2.70;67.20;;;;;;5038512;28;20178;-37
2023/01/17 05:03:28;;;;;;;8.47;6.23;;;2.70;98.30;;;;;;5038812;28;20186;-36
2023/01/17 05:05:54;;;;;;;7.23;5.23;;;2.70;99.90;;;;;;5038701;28;20440;-37
2023/01/17 05:08:20;;;;;;;5.93;4.43;;;2.70;99.90;;;;;;5037687;28;20179;-36
2023/01/17 05:10:46;;;;;;;6.03;4.10;;;2.70;99.90;;;;;;5038159;28;20574;-36
2023/01/17 05:13:11;;;;;;;6.13;4.20;;;2.80;99.90;;;;;;5035394;28;20334;-36
2023/01/17 05:15:37;;;;;;;5.17;3.47;;;2.80;99.90;;;;;;5036484;28;20829;-36
2023/01/17 05:18:07;;;;;;;4.20;3.00;;;2.80;99.90;;;;;;5035969;28;20509;-37
2023/01/17 05:20:34;;;;;;;3.57;2.20;;;2.80;99.90;;;;;;5038710;28;20259;-37
2023/01/17 05:23:00;;;;;;;3.17;2.10;;;2.80;99.90;;;;;;5037997;28;20449;-36
2023/01/17 05:25:30;;;;;;;3.00;2.30;;;2.80;99.90;;;;;;5038796;28;20432;-37
2023/01/17 05:27:58;;;;;;;3.57;1.63;;;2.80;99.90;;;;;;5036815;28;20504;-37
2023/01/17 05:30:25;;;;;;;2.50;1.90;;;2.80;99.90;;;;;;5037257;28;20584;-38
2023/01/17 05:32:52;;;;;;;1.80;1.50;;;2.80;99.90;;;;;;5035349;28;20768;-37
2023/01/17 05:35:20;;;;;;;2.73;1.20;;;2.90;99.90;;;;;;5037746;28;20773;-38
2023/01/17 05:37:47;;;;;;;2.73;2.43;;;2.90;99.90;;;;;;5037129;28;20429;-37
2023/01/17 05:40:17;;;;;;;3.50;2.80;;;2.90;99.90;;;;;;5036785;28;20414;-36
2023/01/17 05:42:47;;;;;;;4.00;3.30;;;2.90;99.90;;;;;;5035530;28;20461;-37
2023/01/17 05:45:15;;;;;;;3.50;2.70;;;2.90;99.90;;;;;;5033758;28;20848;-37
2023/01/17 05:47:45;;;;;;;3.37;2.53;;;2.90;99.90;;;;;;5034526;28;20906;-35
2023/01/17 05:50:12;;;;;;;2.23;2.03;;;2.90;99.90;;;;;;5035577;28;20536;-37
2023/01/17 05:52:38;;;;;;;3.43;2.47;;;3.00;99.90;;;;;;5034155;28;20433;-37
2023/01/17 05:55:06;;;;;;;3.00;2.50;;;3.00;99.90;;;;;;5033223;28;20743;-39
2023/01/17 05:57:32;;;;;;;2.50;2.00;;;3.00;99.90;;;;;;5033258;28;20448;-37
2023/01/17 05:59:57;;;;;;;3.30;2.13;;;3.00;99.90;;;;;;5033948;28;20413;-36
2023/01/17 06:02:23;;;;;;;2.70;2.27;;;3.00;99.90;;;;;;5030881;28;20425;-37
2023/01/17 06:04:49;;;;;;;2.67;2.20;;;3.00;99.90;;;;;;5025375;28;20249;-37
2023/01/17 06:07:14;;;;;;;2.67;1.80;;;3.00;99.90;;;;;;5028945;28;20183;-36
2023/01/17 06:09:40;;;;;;;1.47;1.07;;;3.00;99.90;;;;;;5027934;28;20668;-37
2023/01/17 06:12:05;;;;;;;2.03;1.60;;;3.00;99.90;;;;;;5028570;28;20217;-36
2023/01/17 06:14:31;;;;;;;3.07;1.40;;;2.90;99.90;;;;;;5028006;28;20188;-37
2023/01/17 06:16:57;;;;;;;2.27;1.40;;;2.90;99.90;;;;;;5026909;28;20201;-37
2023/01/17 06:19:22;;;;;;;1.63;1.37;;;3.00;99.90;;;;;;5026490;28;20237;-37
2023/01/17 06:21:48;;;;;;;2.40;1.50;;;3.00;99.90;;;;;;5026614;28;20257;-38
2023/01/17 06:24:15;;;;;;;1.73;1.50;;;3.00;99.90;;;;;;5029071;28;20505;-41
2023/01/17 06:26:42;;;;;;;2.00;1.40;;;3.00;99.90;;;;;;5035808;28;20442;-36
2023/01/17 06:29:10;;;;;;;1.60;1.30;;;3.00;99.90;;;;;;5050744;28;20626;-37
2023/01/17 06:31:36;;;;;;;2.80;1.60;;;2.90;99.90;;;;;;5050492;28;20432;-37
2023/01/17 06:34:03;;;;;;;1.70;1.40;;;2.90;99.90;;;;;;5049790;28;20426;-37
2023/01/17 06:36:29;;;;;;;3.40;1.33;;;2.90;99.90;;;;;;5049204;28;20431;-37
2023/01/17 06:38:55;;;;;;;3.60;1.37;;;2.90;59.30;;;;;;5051047;28;20464;-37
2023/01/17 06:41:22;;;;;;;3.73;2.13;;;2.90;43.50;;;;;;5046537;28;20443;-37
2023/01/17 06:43:48;;;;;;;1.63;1.53;;;2.90;41.70;;;;;;5049076;28;20162;-37
2023/01/17 06:46:13;;;;;;;3.33;1.60;;;2.90;24.40;;;;;;5048196;28;20505;-37
2023/01/17 06:48:42;;;;;;;2.20;1.40;;;2.80;35.10;;;;;;5048559;28;20420;-36
2023/01/17 06:51:08;;;;;;;3.00;2.17;;;2.90;47.70;;;;;;5047986;28;20293;-36
2023/01/17 06:53:33;;;;;;;3.30;2.47;;;2.80;54.90;;;;;;5047419;28;20503;-37
2023/01/17 06:55:59;;;;;;;8.23;3.00;;;2.80;50.80;;;;;;5049349;28;20871;-37
2023/01/17 06:58:25;;;;;;;3.73;2.60;;;2.80;55.20;;;;;;5051075;28;20561;-36
2023/01/17 07:00:50;;;;;;;4.10;2.80;;;2.80;74.40;;;;;;5051054;28;20181;-36
2023/01/17 07:03:19;;;;;;;4.27;2.93;;;2.80;98.50;;;;;;5054191;28;20165;-37
2023/01/17 07:05:44;;;;;;;6.17;3.40;;;2.80;99.90;;;;;;5052925;28;20186;-36
2023/01/17 07:08:10;;;;;;;3.60;2.00;;;2.80;99.90;;;;;;5052652;28;20412;-36
2023/01/17 07:10:36;;;;;;;2.90;2.30;;;2.80;99.90;;;;;;5051128;28;20185;-37
2023/01/17 07:13:01;;;;;;;3.07;2.37;;;2.80;99.90;;;;;;5051922;28;20173;-37
2023/01/17 07:15:27;;;;;;;2.53;2.33;;;2.80;99.90;;;;;;5050466;28;20274;-37
2023/01/17 07:17:53;;;;;;;3.13;2.17;;;2.80;99.90;;;;;;5052548;28;20248;-36
2023/01/17 07:20:18;;;;;;;2.17;1.73;;;2.80;67.60;;;;;;5053206;28;20260;-36
2023/01/17 07:22:44;;;;;;;3.70;2.37;;;2.80;27.20;;;;;;5054452;28;20581;-37
2023/01/17 07:25:10;;;;;;;3.17;2.00;;;2.80;1.00;;;;;;5055141;28;20239;-36
2023/01/17 07:27:35;;;;;;;1.90;1.50;;;2.80;1.00;;;;;;5055517;28;20432;-36
2023/01/17 07:30:01;;;;;;;2.23;1.93;;;2.80;1.00;;;;;;5054630;28;20485;-36
2023/01/17 07:32:28;;;;;;;3.53;1.77;;;2.80;1.00;;;;;;5057562;28;20322;-36
2023/01/17 07:34:56;;;;;;;3.17;1.50;;;2.80;1.00;;;;;;5056407;28;20209;-36
2023/01/17 07:37:22;;;;;;;2.60;1.70;;;2.90;1.00;;;;;;5057575;28;20903;-36
2023/01/17 07:39:48;;;;;;;2.20;1.70;;;3.00;1.00;;;;;;5055420;28;20470;-36
2023/01/17 07:42:14;;;;;;;3.20;1.80;;;3.30;1.00;;;;;;5053437;28;20428;-36
2023/01/17 07:44:42;;;;;;;1.90;1.60;;;3.50;1.00;;;;;;5053013;28;20667;-37
2023/01/17 07:47:08;;;;;;;2.53;1.60;;;3.50;1.00;;;;;;5052213;28;20543;-37
2023/01/17 07:49:34;;;;;;;1.70;1.13;;;3.60;99.90;;;;;;5053694;28;20613;-36
2023/01/17 07:51:59;;;;;;;1.90;1.40;;;3.60;1.00;;;;;;5054653;28;20498;-38
2023/01/17 07:54:25;;;;;;;1.83;1.63;;;3.60;99.90;;;;;;5054733;28;20220;-36
2023/01/17 07:56:51;;;;;;;4.90;2.30;;;3.50;1.00;;;;;;5054729;28;20189;-37
2023/01/17 07:59:17;;;;;;;3.47;2.57;;;3.50;1.00;;;;;;5055742;28;20202;-36
2023/01/17 08:01:42;;;;;;;2.77;2.57;;;3.50;99.90;;;;;;5055313;28;20182;-36
2023/01/17 08:04:09;;;;;;;4.17;3.00;;;3.50;99.90;;;;;;5055171;28;20696;-37
2023/01/17 08:06:34;;;;;;;5.30;2.80;;;3.60;99.90;;;;;;5056827;28;20424;-36
2023/01/17 08:09:00;;;;;;;2.80;2.50;;;3.70;99.90;;;;;;5055804;28;20416;-36
2023/01/17 08:11:26;;;;;;;3.43;2.07;;;3.80;99.90;;;;;;5057033;28;20204;-36
2023/01/17 08:13:56;;;;;;;2.90;2.40;;;3.90;7.00;;;;;;5057300;28;20216;-36
2023/01/17 08:16:23;;;;;;;2.70;2.50;;;4.10;1.00;;;;;;5056303;28;20190;-37
2023/01/17 08:18:49;;;;;;;2.50;2.10;;;4.30;1.00;;;;;;5057616;28;20484;-36
2023/01/17 08:21:15;;;;;;;2.60;2.20;;;4.40;99.90;;;;;;5056370;28;20428;-35
2023/01/17 08:23:50;;;;;;;2.50;1.90;;;4.50;99.90;;;;;;5055931;28;20503;-37
2023/01/17 08:26:21;;;;;;;2.13;1.93;;;4.60;23.20;;;;;;5053966;28;20804;-36
2023/01/17 08:28:59;;;;;;;2.50;1.83;;;4.70;1.00;;;;;;5053758;28;20424;-37
2023/01/17 08:31:25;;;;;;;3.13;2.37;;;4.80;1.00;;;;;;5054198;28;20523;-37
2023/01/17 08:33:51;;;;;;;3.23;2.70;;;4.80;1.00;;;;;;5054057;28;20440;-36
2023/01/17 08:36:20;;;;;;;4.40;3.97;;;4.90;99.90;;;;;;5055154;28;20584;-44
2023/01/17 08:38:45;;;;;;;9.33;6.80;;;5.00;99.90;;;;;;5053509;28;20296;-35
2023/01/17 08:41:12;;;;;;;9.27;7.07;;;5.10;1.00;;;;;;5044922;28;20787;-36
2023/01/17 08:43:38;;;;;;;10.97;8.33;;;5.20;1.00;;;;;;5035120;28;20205;-35
2023/01/17 08:46:05;;;;;;;10.80;8.93;;;5.30;99.90;;;;;;5035396;28;20429;-36
2023/01/17 08:48:30;;;;;;;12.30;8.47;;;5.40;99.90;;;;;;5035434;28;20178;-37
2023/01/17 08:51:00;;;;;;;12.40;8.17;;;5.40;89.00;;;;;;5034735;28;20534;-36
2023/01/17 08:53:26;;;;;;;9.00;7.17;;;5.50;1.00;;;;;;5034621;28;20213;-35
2023/01/17 08:55:59;;;;;;;7.60;5.40;;;5.50;1.00;;;;;;5034320;28;20468;-37
2023/01/17 08:58:29;;;;;;;7.03;5.27;;;5.60;1.00;;;;;;5034212;28;20654;-37
2023/01/17 09:00:59;;;;;;;4.70;4.07;;;5.70;1.00;;;;;;5034637;28;20516;-36
2023/01/17 09:03:25;;;;;;;4.07;3.70;;;5.80;99.90;;;;;;5034734;28;20997;-37
2023/01/17 09:05:59;;;;;;;3.70;3.30;;;6.00;99.90;;;;;;5033589;28;20456;-35
2023/01/17 09:08:25;;;;;;;3.10;2.60;;;6.10;99.90;;;;;;5034448;28;20471;-36
2023/01/17 09:10:51;;;;;;;3.03;2.40;;;6.20;99.90;;;;;;5033690;28;20437;-36
2023/01/17 09:13:16;;;;;;;2.90;2.27;;;6.50;96.50;;;;;;5033021;28;20182;-40
2023/01/17 09:15:42;;;;;;;2.77;1.97;;;6.90;1.00;;;;;;5033657;28;20236;-37
2023/01/17 09:18:07;;;;;;;2.00;1.80;;;7.50;1.00;;;;;;5043374;28;20294;-37
2023/01/17 09:20:33;;;;;;;3.00;2.23;;;8.20;1.00;;;;;;5054352;28;20268;-37
2023/01/17 09:23:02;;;;;;;2.40;1.90;;;8.80;99.90;;;;;;5053483;28;20223;-37
2023/01/17 09:25:27;;;;;;;2.03;1.40;;;9.50;99.90;;;;;;5055074;28;20612;-35
2023/01/17 09:27:53;;;;;;;2.83;1.60;;;10.10;40.20;;;;;;5052823;28;20586;-36
2023/01/17 09:30:19;;;;;;;5.03;1.73;;;10.60;1.00;;;;;;5053245;28;20174;-36
2023/01/17 09:32:53;;;;;;;3.00;1.63;;;11.00;1.00;;;;;;5055543;28;20276;-37
2023/01/17 09:35:19;;;;;;;2.73;1.60;;;11.40;1.00;;;;;;5054428;28;20165;-36
2023/01/17 09:37:49;;;;;;;1.80;1.20;;;11.70;1.00;;;;;;5054963;28;20424;-37
2023/01/17 09:40:20;;;;;;;2.03;1.43;;;11.70;1.00;;;;;;5055661;28;20439;-37
2023/01/17 09:42:52;;;;;;;1.50;1.23;;;11.50;1.00;;;;;;5053593;28;20438;-37
2023/01/17 09:45:18;;;;;;;2.17;1.37;;;11.40;1.00;;;;;;5053877;28;20419;-36
2023/01/17 09:47:50;;;;;;;1.57;1.20;;;11.70;1.00;;;;;;5053426;28;20843;-36
2023/01/17 09:50:25;;;;;;;1.73;1.10;;;12.20;1.00;;;;;;5055662;28;20762;-37
2023/01/17 09:53:05;;;;;;;2.90;1.00;;;12.80;1.00;;;;;;5055378;28;20415;-38
2023/01/17 09:55:40;;;;;;;2.60;1.23;;;13.40;1.00;;;;;;5053907;28;20435;-37
2023/01/17 09:58:20;;;;;;;1.53;1.20;;;14.00;1.00;;;;;;5055051;28;20895;-37
2023/01/17 10:01:04;;;;;;;1.50;0.90;;;14.80;1.00;;;;;;5064168;28;20420;-37
2023/01/17 10:03:49;;;;;;;1.77;1.00;;;15.50;1.00;;;;;;5046807;28;20430;-37
2023/01/17 10:06:36;;;;;;;2.13;1.10;;;16.60;1.00;;;;;;5063820;28;20421;-38
2023/01/17 10:09:14;;;;;;;1.37;0.80;;;17.80;1.00;;;;;;5065735;28;20415;-38
2023/01/17 10:12:18;;;;;;;1.60;0.90;;;19.10;1.00;;;;;;5063767;28;20428;-38
2023/01/17 10:14:55;;;;;;;1.40;0.80;;;20.40;1.00;;;;;;5061924;28;20415;-38
2023/01/17 10:17:58;;;;;;;1.57;1.00;;;21.90;1.00;;;;;;5062012;28;20428;-38
2023/01/17 10:20:41;;;;;;;1.40;0.80;;;23.40;1.00;;;;;;5061561;28;20473;-40
2023/01/17 10:23:07;;;;;;;1.30;0.60;;;24.80;1.00;;;;;;5059791;28;20404;-39
2023/01/17 10:25:44;;;;;;;1.70;0.90;;;25.80;1.00;;;;;;5060222;28;20411;-41
2023/01/17 10:28:19;;;;;;;2.07;0.80;;;26.30;1.00;;;;;;5051506;28;20173;-39
2023/01/17 10:30:48;;;;;;;1.60;1.00;;;26.70;1.00;;;;;;5053813;28;20463;-39
2023/01/17 10:33:20;;;;;;;1.60;0.63;;;27.10;1.00;;;;;;5051682;28;20716;-39
2023/01/17 10:35:55;;;;;;;3.00;1.03;;;27.30;1.00;;;;;;5051503;28;20640;-39
2023/01/17 10:38:32;;;;;;;2.20;0.70;;;27.40;1.00;;;;;;5054335;28;20467;-39
2023/01/17 10:41:19;;;;;;;1.60;1.00;;;27.40;1.00;;;;;;5053965;28;20457;-39
2023/01/17 10:44:14;;;;;;;1.53;0.90;;;27.30;1.00;;;;;;5044027;28;20416;-39
2023/01/17 10:46:47;;;;;;;1.77;1.20;;;26.80;1.00;;;;;;5054030;28;20424;-39
2023/01/17 10:49:24;;;;;;;2.73;1.40;;;26.50;1.00;;;;;;5054230;28;20420;-39
2023/01/17 10:52:15;;;;;;;2.07;1.10;;;26.00;1.00;;;;;;5035296;28;20866;-39
2023/01/17 10:54:49;;;;;;;1.30;0.97;;;25.90;1.00;;;;;;5052120;28;20870;-38
2023/01/17 10:57:24;;;;;;;2.37;1.10;;;25.90;1.00;;;;;;5053423;28;20427;-40
2023/01/17 10:59:51;;;;;;;2.07;1.40;;;26.10;1.00;;;;;;5053440;28;20455;-38
2023/01/17 11:02:29;;;;;;;1.80;1.27;;;26.40;1.00;;;;;;5053038;28;20440;-42
2023/01/17 11:04:56;;;;;;;1.70;1.27;;;26.70;1.00;;;;;;5053742;28;20446;-40
2023/01/17 11:07:24;;;;;;;2.80;1.30;;;27.10;1.00;;;;;;5052811;28;20767;-40
2023/01/17 11:09:55;;;;;;;1.80;1.10;;;27.60;1.00;;;;;;5051848;28;20412;-39
2023/01/17 11:12:31;;;;;;;2.00;1.23;;;27.80;1.00;;;;;;5052476;28;20473;-39
2023/01/17 11:15:02;;;;;;;1.50;1.10;;;28.20;1.00;;;;;;5051201;28;20394;-39
2023/01/17 11:17:28;;;;;;;1.30;0.90;;;28.50;1.00;;;;;;5050769;28;20427;-40
2023/01/17 11:20:06;;;;;;;1.37;1.03;;;28.70;1.00;;;;;;5052397;28;20472;-39
2023/01/17 11:22:31;;;;;;;1.70;1.07;;;28.90;1.00;;;;;;5052584;28;20758;-38
2023/01/17 11:24:58;;;;;;;1.70;1.30;;;29.70;1.00;;;;;;5053075;28;20430;-36
2023/01/17 11:27:34;;;;;;;1.30;1.07;;;30.40;1.00;;;;;;5046084;28;20186;-37
2023/01/17 11:30:16;;;;;;;1.63;1.00;;;30.80;1.00;;;;;;5046890;28;20864;-38
2023/01/17 11:32:55;;;;;;;3.20;1.20;;;31.20;1.00;;;;;;5049832;28;20398;-39
2023/01/17 11:35:43;;;;;;;2.13;1.10;;;31.90;1.00;;;;;;5049619;28;20391;-40
2023/01/17 11:38:20;;;;;;;2.70;1.20;;;32.60;1.00;;;;;;5049097;28;20499;-39
2023/01/17 11:40:47;;;;;;;3.33;1.43;;;32.80;1.00;;;;;;5054027;28;20415;-40
2023/01/17 11:43:21;;;;;;;1.77;1.40;;;33.20;1.00;;;;;;5055550;28;20408;-40
2023/01/17 11:46:04;;;;;;;1.77;1.30;;;33.40;1.00;;;;;;5054876;28;20795;-38
2023/01/17 11:48:36;;;;;;;1.77;1.37;;;33.70;1.00;;;;;;5054664;28;20404;-39
2023/01/17 11:51:02;;;;;;;2.50;1.43;;;34.10;1.00;;;;;;5036629;28;20758;-40
2023/01/17 11:53:31;;;;;;;15.03;2.60;;;34.50;1.00;;;;;;5053300;28;20404;-40
2023/01/17 11:56:26;;;;;;;3.80;1.70;;;34.80;1.00;;;;;;5052496;28;20457;-41
2023/01/17 11:59:22;;;;;;;2.40;1.17;;;34.70;1.00;;;;;;5054809;28;20470;-39
2023/01/17 12:02:17;;;;;;;5.03;1.70;;;33.30;1.00;;;;;;5054704;28;20493;-40
2023/01/17 12:04:46;;;;;;;1.97;1.17;;;31.30;1.00;;;;;;5054001;28;20437;-41
2023/01/17 12:07:21;;;;;;;2.10;1.20;;;30.60;1.00;;;;;;5053191;28;20547;-38
2023/01/17 12:09:58;;;;;;;1.63;1.10;;;29.80;1.00;;;;;;5055331;28;20896;-40
2023/01/17 12:15:38;;;;;;;4.70;1.47;;;27.40;1.00;;;;;;5052458;28;20462;-40
2023/01/17 12:18:24;;;;;;;2.17;1.27;;;26.70;1.00;;;;;;5052831;28;20450;-39
2023/01/17 12:21:01;;;;;;;1.50;1.10;;;26.00;1.00;;;;;;5051124;28;20668;-38
2023/01/17 12:24:13;;;;;;;1.97;1.27;;;25.40;1.00;;;;;;5052690;28;20419;-40
2023/01/17 12:26:49;;;;;;;2.10;1.40;;;24.90;1.00;;;;;;5049480;28;20431;-39
2023/01/17 12:29:28;;;;;;;1.33;0.87;;;24.30;1.00;;;;;;5050409;28;20423;-39
2023/01/17 12:32:29;;;;;;;1.70;1.10;;;23.60;1.00;;;;;;5048215;28;20819;-38
2023/01/17 12:35:09;;;;;;;1.47;1.10;;;23.00;1.00;;;;;;5045111;28;20720;-38
2023/01/17 12:37:40;;;;;;;2.37;1.10;;;22.40;1.00;;;;;;5049865;28;20431;-38
2023/01/17 12:40:15;;;;;;;1.43;1.00;;;22.20;1.00;;;;;;5051498;28;20460;-39
2023/01/17 12:42:46;;;;;;;2.10;1.07;;;22.10;1.00;;;;;;5051851;28;20415;-37
2023/01/17 12:45:24;;;;;;;1.57;0.90;;;22.10;1.00;;;;;;5050243;28;20501;-40
2023/01/17 12:48:00;;;;;;;2.00;1.20;;;22.00;1.00;;;;;;5051118;28;20455;-38
2023/01/17 12:50:38;;;;;;;1.53;1.00;;;21.90;1.00;;;;;;5050277;28;20408;-39
2023/01/17 12:53:18;;;;;;;1.70;0.90;;;21.70;1.00;;;;;;5052896;28;20440;-39
2023/01/17 12:56:05;;;;;;;2.10;1.23;;;21.50;1.00;;;;;;5052167;28;20470;-38
2023/01/17 12:58:43;;;;;;;1.27;0.73;;;21.20;1.00;;;;;;5051516;28;20594;-38
2023/01/17 13:01:30;;;;;;;1.70;1.20;;;20.80;1.00;;;;;;5052925;28;20521;-39
2023/01/17 13:04:15;;;;;;;1.80;1.10;;;20.40;1.00;;;;;;5053580;28;20507;-38
2023/01/17 13:06:51;;;;;;;1.50;0.90;;;20.10;1.00;;;;;;5051262;28;20585;-39
2023/01/17 13:09:20;;;;;;;1.40;0.90;;;19.80;1.00;;;;;;5052436;28;20431;-39
2023/01/17 13:11:59;;;;;;;1.50;0.90;;;19.40;1.00;;;;;;5053279;28;20424;-38
2023/01/17 13:14:24;;;;;;;1.30;0.83;;;19.20;1.00;;;;;;5052225;28;20419;-38
2023/01/17 13:17:18;;;;;;;1.50;0.87;;;19.00;1.00;;;;;;5051844;28;20869;-39
2023/01/17 13:20:14;;;;;;;1.50;1.00;;;18.80;1.00;;;;;;5022636;28;20237;-39
2023/01/17 13:22:41;;;;;;;1.50;0.90;;;18.60;1.00;;;;;;5051653;28;20858;-38
2023/01/17 13:25:30;;;;;;;1.23;0.70;;;18.50;1.00;;;;;;5053583;28;20456;-39
2023/01/17 13:28:21;;;;;;;2.23;1.40;;;18.30;1.00;;;;;;5035760;28;20436;-40
2023/01/17 13:31:20;;;;;;;1.60;1.00;;;18.10;1.00;;;;;;5033605;28;20428;-38
2023/01/17 13:34:01;;;;;;;1.60;1.10;;;17.50;1.00;;;;;;5033426;28;20409;-38
2023/01/17 13:37:03;;;;;;;2.27;1.10;;;17.10;1.00;;;;;;5028279;28;20595;-38
2023/01/17 13:39:38;;;;;;;1.80;1.33;;;16.60;1.00;;;;;;5032067;28;20506;-38
2023/01/17 13:42:06;;;;;;;2.40;1.20;;;16.20;1.00;;;;;;5031555;28;20531;-38
2023/01/17 13:44:32;;;;;;;2.03;1.00;;;16.00;1.00;;;;;;5033342;28;20409;-39
2023/01/17 13:46:59;;;;;;;1.03;0.70;;;15.60;1.00;;;;;;5032958;28;20428;-37
2023/01/17 13:49:28;;;;;;;1.70;1.00;;;15.30;1.00;;;;;;5033498;28;20162;-38
2023/01/17 13:52:01;;;;;;;2.10;1.10;;;15.00;1.00;;;;;;5034314;28;20462;-37
2023/01/17 13:54:31;;;;;;;1.43;0.90;;;14.70;1.00;;;;;;5032770;28;20474;-37
2023/01/17 13:57:35;;;;;;;1.97;1.23;;;14.40;1.00;;;;;;5049004;28;20437;-38
2023/01/17 14:00:20;;;;;;;1.93;1.00;;;14.10;1.00;;;;;;5031629;28;20448;-37
2023/01/17 14:02:50;;;;;;;1.50;0.90;;;13.80;1.00;;;;;;5032812;28;20480;-37
2023/01/17 14:05:37;;;;;;;1.87;1.10;;;13.50;1.00;;;;;;5031591;28;20417;-37
2023/01/17 14:08:12;;;;;;;1.50;1.00;;;13.20;1.00;;;;;;5031808;28;20479;-37
2023/01/17 14:10:49;;;;;;;1.57;1.20;;;12.90;1.00;;;;;;5030934;28;20414;-38
2023/01/17 14:13:35;;;;;;;1.83;1.20;;;12.60;1.00;;;;;;5029644;28;20421;-36
2023/01/17 14:16:22;;;;;;;2.03;1.00;;;12.30;1.00;;;;;;5048542;28;20444;-38
2023/01/17 14:18:48;;;;;;;2.00;1.80;;;12.00;1.00;;;;;;5052984;28;20628;-38
2023/01/17 14:21:25;;;;;;;1.87;1.00;;;11.80;1.00;;;;;;5050275;28;20447;-38
2023/01/17 14:24:15;;;;;;;1.63;1.23;;;11.50;1.00;;;;;;5032457;28;20501;-38
2023/01/17 14:26:57;;;;;;;1.70;1.03;;;11.30;1.00;;;;;;5046130;28;20471;-38
2023/01/17 14:29:47;;;;;;;1.70;1.23;;;11.10;1.00;;;;;;5046924;28;20417;-38
2023/01/17 14:32:19;;;;;;;1.90;1.40;;;10.80;1.00;;;;;;5031581;28;20421;-38
2023/01/17 14:34:48;;;;;;;1.60;1.03;;;10.60;1.00;;;;;;5033230;28;20418;-38
2023/01/17 14:37:17;;;;;;;1.90;1.10;;;10.40;1.00;;;;;;5031529;28;20832;-38
2023/01/17 14:39:47;;;;;;;1.40;0.93;;;10.30;1.00;;;;;;5031937;28;20507;-38
2023/01/17 14:42:21;;;;;;;2.60;1.03;;;10.20;1.00;;;;;;5030592;28;20483;-37
2023/01/17 14:44:49;;;;;;;1.70;1.40;;;10.00;1.00;;;;;;5035480;28;20424;-37